Rockwood, ME

12:03 AM EDT on April 18, 2015 (GMT -0400)
Moosehead | | Change Station
CLOSE
Current Station
Personal Weather Station
Location: Maine, ME
Elevation: 1024 ft
Nearby Weather Stations

Elev 1024 ft 45.58 °N, 69.71 °W | Updated 16 minutes ago

Partly Cloudy
Partly Cloudy
42.3 °F
Feels Like 42 °F
N
2.2
Wind Variable Wind from WNW

Today
High -- | Low -- °F
--% Chance of Precip.
Yesterday
High -- | Low -- °F
Precip. -- in
5:48 AM 7:29 PM
Waning Crescent, 1% visible
Pressure 29.85 in
Visibility 8.0 miles
Clouds Scattered Clouds 8000 ft
Windchill 42 °F
Dew Point 34 °F
Humidity 72%
Rainfall in
Snow Depth Not available.
UV 0 out of 12
Pollen 5.40 out of 12
Air Quality Not available.
Flu Activity Regional
METAR KMLT 180353Z AUTO 31003KT 8SM SCT080 06/04 A2983 RMK AO2 SLP108 T00610044

More Conditions Fewer Conditions

Pressure 29.85 in
Visibility 8.0 miles
Clouds Scattered Clouds 8000 ft
Windchill 42 °F
Dew Point 34 °F
Humidity 72%
Rainfall in
Snow Depth Not available.
UV 0 out of 12
Pollen 5.40 out of 12
Air Quality Not available.
Flu Activity Regional
METAR KMLT 180353Z AUTO 31003KT 8SM SCT080 06/04 A2983 RMK AO2 SLP108 T00610044

More Conditions Fewer Conditions

10-Day Weather Forecast

Almanac

Astronomy

Apr. 18, 2015 Rise Set
Actual Time
Civil Twilight
Nautical Twilight
Astronomical Twilight
Moon
Length of Visible Light
Length of Day
Tomorrow will be .
, % of the Moon is Illuminated

Today's Extremes

State Highs State Lows

Community

WunderPhotos

Upload Photos

1,814,322 photos uploaded!

WunderBlogs® & News

Nearby

Air Quality

  Air Quality AQ Index Pollutant
Not available.

Snow Depth

Station Depth Elevation

Earthquake Activity

City Distance Mag. Time & Date
Minimum magnitude displayed is 2.5.

Coastal Water Temperatures

Place Temperature

Stations

Nearby Weather Stations

Station Location Temp. Windchill Dew Point Humidity Wind Precip. Elev Updated Type